Portada
METAR-TAF:

METAR-TAF

Aeroports :

Semei, Kazakhstan

latitud: 50-21-05N, longitud: 080-14-04E, altitud: 232 m

Observació

L'informe es va fer fa 43 minuts, a les 04:30 UTC
Vent calma
Temperatura 4°C
Humitat 60%
Pressió 1022 hPa
Visibilitat 10 km o més
sense núvols per sota de 1500 mi sense presència de cumulonimbus.

METAR: UASS 230430Z 00000MPS CAVOK 04/M03 Q1022 R26/81//60 NOSIG RMK QFE748/0997

Hora: 11:13 (05:13 UTC)

Pronòstic

L'informe es va fer fa 3 hores i 13 minuts, a les 02:00 UTC
Pronòstic vàlid del 23 a les 03 UTC al 23 a les 12 UTC
Vent 10 kt del Est
Visibilitat 10 km o més
Temporalment
l' 23 a les 03 UTC al 23 a les 09 UTC
Vent 10 kt del Sud/Sud-Est

TAF: UASS 230200Z 2303/2312 10005MPS 9999 NSC TEMPO 2303/2309 15005MPS

Observacions i pronòstics meteorològics de més de 4000 aeroports (METAR i TAF).

Les estacions disponibles són els punts grocs i vermells al mapa.

Posi el ratolí al punt desitjat per veure el nom de l'estació.

Feu clic per veure les observacions i els pronòstics meteorològics.

Per canviar el mapa: feu clic els botons verds amb una creu de color negre per apropar; al botó verd amb un guió per allunyar la imatge; o en les fletxes verdes per a mapes adjacents.


METAR-TAF: